Bei Facebook empfehlenBei Twitter postenGoogle plusPinterest

Das Wetter im Erzgebirge am 12.05.2016

Wetter und Klima am 12.05.2016 Holzhau im Erzgebirge (630m ü.NN)
Letzte gemessene Temperatur und Uhrzeit der Messung23:45:00 Uhr10.50 °C
Temperatur (Maximum / Höchstwert) und Uhrzeit der Messung11:45:00 Uhr21.50 °C
Temperatur (Minimum / Tiefstwert) und Uhrzeit der Messung00:00:008.40 °C
Errechneter Absolutwert der Temperaturschwankungen zwischen Tmin und Tmax des Tages13.10 K
Errechnete Tagesmitteltemperatur14.31667 °C
Gesamt - Niederschlag des Tages (in flüssiger Form)0.00 Liter / m²
Luftdruck (Maximum / Höchstwert) und Zeitpunkt der Messung00:00:00 Uhr1003.70 hPa
Luftdruck (Minimum / Tiefstwert) und Zeitpunkt der Messung23:30:00 Uhr997.50 hPa
Errechneter Absolutwert der Luftdruckschwankungen des Tages6.20 hPa
Höchste gemessene Windgeschwindigkeit und Uhrzeit der Messung23:45:00 Uhr0.00 km/h
Errechnete Windhäufigkeit in Relation zu den Messwerten des Tages0.00000 %
Niedrigste Windkühle (Windchill) und Zeitpunkt der Messung00:00:00 Uhr8.40 °C
Taupunkt (Maximum / Höchstwert) und Uhrzeit der Messung06:30:00 Uhr11.70 °C
Taupunkt (Minimum / Tiefstwert) und Uhrzeit der Messung00:00:005.70 °C
Anzahl der automatisch eingelesenen Messwerte 96

Detaillierte Wetter- und Klima- Messwerte für den 12.05.2016 in Holzhau im Erzgebirge (630m ü.NN)
ZeitTemperaturLuftdruckRel. LuftfeuchteWindWindrichtungWindchillTaupunktNiederschlag l/m²
23:45:0010.50 °C997.60 hPa88.00 %8.60 °C 
23:30:0010.50 °C997.50 hPa88.00 %8.60 °C 
23:15:0010.60 °C997.80 hPa88.00 %8.70 °C 
23:00:0010.60 °C997.80 hPa87.00 %8.50 °C 
22:45:0010.80 °C997.90 hPa87.00 %8.70 °C 
22:30:0010.80 °C997.90 hPa87.00 %8.70 °C 
22:15:0010.80 °C998.00 hPa86.00 %8.60 °C 
22:00:0010.90 °C998.00 hPa86.00 %8.70 °C 
21:45:0011.10 °C997.90 hPa86.00 %8.80 °C 
21:30:0011.10 °C997.90 hPa86.00 %8.80 °C 
21:15:0010.90 °C998.10 hPa84.00 %8.30 °C 
21:00:0011.10 °C998.20 hPa83.00 %8.30 °C 
20:45:0011.40 °C998.00 hPa83.00 %8.60 °C 
20:30:0011.90 °C998.20 hPa83.00 %9.10 °C 
20:15:0012.10 °C998.00 hPa82.00 %9.10 °C 
20:00:0012.30 °C998.10 hPa81.00 %9.10 °C 
19:45:0012.50 °C998.10 hPa80.00 %9.10 °C 
19:30:0012.60 °C998.10 hPa78.00 %8.90 °C 
19:15:0012.80 °C998.30 hPa77.00 %8.90 °C 
19:00:0012.90 °C998.30 hPa74.00 %8.40 °C 
18:45:0013.80 °C998.50 hPa71.00 %8.60 °C 
18:30:0015.10 °C998.40 hPa68.00 %9.20 °C 
18:15:0015.30 °C998.10 hPa67.00 %9.20 °C 
18:00:0015.60 °C998.20 hPa66.00 %9.30 °C 
17:45:0016.10 °C998.10 hPa65.00 %9.50 °C 
17:30:0016.40 °C997.90 hPa63.00 %9.30 °C 
17:15:0016.60 °C998.00 hPa63.00 %9.50 °C 
17:00:0016.90 °C998.10 hPa63.00 %9.80 °C 
16:45:0017.10 °C998.20 hPa61.00 %9.50 °C 
16:30:0017.50 °C998.00 hPa59.00 %9.40 °C 
16:15:0017.60 °C998.00 hPa58.00 %9.20 °C 
16:00:0018.20 °C998.10 hPa58.00 %9.80 °C 
15:45:0018.90 °C998.20 hPa55.00 %9.70 °C 
15:30:0019.50 °C998.50 hPa54.00 %10.00 °C 
15:15:0019.90 °C998.60 hPa53.00 %10.00 °C 
15:00:0019.20 °C999.00 hPa54.00 %9.70 °C 
14:45:0018.90 °C999.10 hPa53.00 %9.10 °C 
14:30:0019.10 °C999.10 hPa51.00 %8.70 °C 
14:15:0019.90 °C999.50 hPa49.00 %8.90 °C 
14:00:0019.80 °C999.20 hPa48.00 %8.50 °C 
13:45:0020.10 °C999.50 hPa49.00 %9.10 °C 
13:30:0019.60 °C999.40 hPa49.00 %8.60 °C 
13:15:0020.10 °C999.60 hPa48.00 %8.80 °C 
13:00:0020.40 °C999.60 hPa48.00 %9.00 °C 
12:45:0020.10 °C999.70 hPa48.00 %8.80 °C 
12:30:0020.10 °C999.60 hPa47.00 %8.40 °C 
12:15:0020.30 °C999.70 hPa46.00 %8.30 °C 
12:00:0020.40 °C999.90 hPa47.00 %8.70 °C 
11:45:0021.50 °C999.90 hPa49.00 %10.30 °C 
11:30:0020.30 °C999.80 hPa52.00 %10.10 °C 
11:15:0018.90 °C999.90 hPa54.00 %9.40 °C 
11:00:0018.20 °C1000.00 hPa54.00 %8.70 °C 
10:45:0018.30 °C1000.10 hPa55.00 %9.10 °C 
10:30:0018.10 °C1000.40 hPa56.00 %9.20 °C 
10:15:0018.10 °C1000.40 hPa56.00 %9.20 °C 
10:00:0018.40 °C1000.60 hPa58.00 %10.00 °C 
09:45:0017.70 °C1000.30 hPa60.00 %9.80 °C 
09:30:0017.40 °C1000.50 hPa60.00 %9.60 °C 
09:15:0017.10 °C1000.40 hPa61.00 %9.50 °C 
09:00:0016.70 °C1000.60 hPa61.00 %9.10 °C 
08:45:0017.00 °C1000.60 hPa61.00 %9.40 °C 
08:30:0016.80 °C1000.60 hPa63.00 %9.70 °C 
08:15:0016.80 °C1000.70 hPa65.00 %10.20 °C 
08:00:0016.40 °C1000.80 hPa68.00 %10.50 °C 
07:45:0016.10 °C1001.00 hPa67.00 %10.00 °C 
07:30:0015.90 °C1001.00 hPa70.00 %10.40 °C 
07:15:0015.80 °C1001.00 hPa71.00 %10.60 °C 
07:00:0015.90 °C1000.90 hPa72.00 %10.90 °C 
06:45:0015.80 °C1000.90 hPa76.00 %11.60 °C 
06:30:0014.90 °C1001.00 hPa81.00 %11.70 °C 
06:15:0013.00 °C1001.00 hPa85.00 %10.50 °C 
06:00:0010.80 °C1001.00 hPa86.00 %8.60 °C 
05:45:0010.40 °C1001.10 hPa85.00 %8.00 °C 
05:30:009.90 °C1001.30 hPa86.00 %7.70 °C 
05:15:009.60 °C1001.40 hPa85.00 %7.20 °C 
05:00:009.60 °C1001.40 hPa85.00 %7.20 °C 
04:45:009.60 °C1001.40 hPa86.00 %7.40 °C 
04:30:009.30 °C1001.40 hPa85.00 %6.90 °C 
04:15:008.70 °C1001.50 hPa85.00 %6.30 °C 
04:00:008.90 °C1001.80 hPa84.00 %6.30 °C 
03:45:009.10 °C1001.80 hPa84.00 %6.50 °C 
03:30:009.50 °C1001.90 hPa83.00 %6.80 °C 
03:15:009.40 °C1002.20 hPa83.00 %6.70 °C 
03:00:009.80 °C1002.30 hPa82.00 %6.90 °C 
02:45:0010.10 °C1002.40 hPa82.00 %7.20 °C 
02:30:0010.30 °C1002.40 hPa83.00 %7.50 °C 
02:15:009.80 °C1002.50 hPa83.00 %7.10 °C 
02:00:009.30 °C1002.50 hPa83.00 %6.60 °C 
01:45:009.40 °C1002.70 hPa82.00 %6.50 °C 
01:30:009.80 °C1003.20 hPa81.00 %6.70 °C 
01:15:0010.10 °C1003.20 hPa82.00 %7.20 °C 
01:00:009.80 °C1003.10 hPa83.00 %7.10 °C 
00:45:009.30 °C1003.20 hPa83.00 %6.60 °C 
00:30:008.80 °C1003.30 hPa83.00 %6.10 °C 
00:15:008.90 °C1003.50 hPa83.00 %6.20 °C 
00:00:008.40 °C1003.70 hPa83.00 %5.70 °C 

Permanenter Link zu dieser Seite: Wetter im Erzgebirge am 12.05.2016
Performance-Info: Die Erstellung der Seite / Statistik(en) / Tabelle(n) erforderte 5 Datenbankserver-Abfrage(n) und dauerte 100 Millisekunden. (Dieser Messwert ist von der Gesamt-Auslastung des Servers abhängig.)
Erzgebirge - Wetter | Erzgebirge - Wetter (Mobilgeräte) | Komplette Klimadatenbank